Time;durP1;ratioP1;P1;durP2;ratioP2;P2;SDS_P1;SDS_P2;PMS_P1;PMS_P2;Temp;Humidity;BMP_temperature;BMP_pressure;BME280_temperature;BME280_humidity;BME280_pressure;Samples;Min_cycle;Max_cycle;Signal;HPM_P1;HPM_P2
2022/04/07 00:02:18;;;;;;;12.90;5.00;;;;;;;6.88;88.57;97610.17;104804;1274;74222;-63
2022/04/07 00:05:06;;;;;;;13.10;5.60;;;;;;;6.88;88.75;97606.16;104733;1274;59694;-64
2022/04/07 00:07:54;;;;;;;12.20;5.20;;;;;;;6.88;88.43;97598.22;104923;1274;59925;-63
2022/04/07 00:10:42;;;;;;;15.00;5.50;;;;;;;6.86;88.27;97592.04;104688;1274;74220;-61
2022/04/07 00:13:31;;;;;;;14.10;5.20;;;;;;;6.88;88.42;97591.02;104722;1274;69421;-65
2022/04/07 00:16:18;;;;;;;12.30;5.00;;;;;;;6.87;88.02;97586.65;104633;1274;74877;-64
2022/04/07 00:19:07;;;;;;;10.90;4.90;;;;;;;6.88;88.19;97585.90;104650;1275;59667;-65
2022/04/07 00:21:57;;;;;;;12.40;5.30;;;;;;;6.88;87.99;97579.74;104752;1277;60972;-64
2022/04/07 00:29:26;;;;;;;13.00;4.90;;;;;;;6.86;87.71;97572.20;104669;1274;67162;-64
2022/04/07 00:32:14;;;;;;;9.40;4.10;;;;;;;6.85;87.66;97564.67;104876;1275;74522;-64
2022/04/07 00:35:04;;;;;;;12.50;4.90;;;;;;;6.85;87.75;97563.85;104675;1274;60316;-64
2022/04/07 00:37:52;;;;;;;9.60;4.30;;;;;;;6.85;87.64;97561.13;104601;1274;60255;-64
2022/04/07 00:40:40;;;;;;;12.30;5.30;;;;;;;6.86;87.62;97562.52;104606;1274;73906;-62
2022/04/07 00:43:32;;;;;;;14.30;4.70;;;;;;;6.85;87.78;97558.65;104880;1274;68410;-66
2022/04/07 00:46:20;;;;;;;9.40;4.10;;;;;;;6.84;87.67;97558.25;104732;1274;73392;-64
2022/04/07 00:49:10;;;;;;;10.60;4.50;;;;;;;6.81;87.80;97558.52;104861;1274;60675;-64
2022/04/07 00:51:57;;;;;;;11.80;4.00;;;;;;;6.82;87.63;97554.96;104600;1274;59707;-68
2022/04/07 00:54:49;;;;;;;8.80;3.70;;;;;;;6.82;87.68;97552.45;104670;1274;73869;-66
2022/04/07 00:57:42;;;;;;;10.60;3.80;;;;;;;6.82;87.69;97545.95;104638;1276;69202;-64
2022/04/07 01:00:30;;;;;;;10.90;4.40;;;;;;;6.80;87.50;97546.61;104638;1274;73500;-62
2022/04/07 01:03:18;;;;;;;9.70;3.80;;;;;;;6.79;87.53;97538.66;104624;1274;59680;-64
2022/04/07 01:06:06;;;;;;;9.10;4.30;;;;;;;6.78;87.88;97533.33;104678;1274;59559;-65
2022/04/07 01:08:56;;;;;;;10.40;3.90;;;;;;;6.75;88.04;97529.85;104628;1274;72782;-63
2022/04/07 01:11:45;;;;;;;8.00;3.30;;;;;;;6.73;88.19;97526.70;104641;1274;69747;-63
2022/04/07 01:14:33;;;;;;;8.50;3.60;;;;;;;6.72;88.24;97521.90;104610;1274;72510;-66
2022/04/07 01:17:22;;;;;;;8.90;3.30;;;;;;;6.71;88.18;97513.41;104058;1274;1003209;-64
2022/04/07 01:20:10;;;;;;;10.00;3.90;;;;;;;6.68;88.25;97512.95;104681;1274;60560;-64
2022/04/07 01:22:59;;;;;;;8.80;3.90;;;;;;;6.67;88.34;97508.33;104057;1277;1003550;-63
2022/04/07 01:25:47;;;;;;;9.50;3.90;;;;;;;6.66;88.31;97508.81;104744;1277;69582;-62
2022/04/07 01:28:36;;;;;;;10.00;3.90;;;;;;;6.65;88.20;97507.66;104498;1277;73310;-64
2022/04/07 01:31:24;;;;;;;12.30;3.70;;;;;;;6.65;88.25;97505.54;104533;1277;59776;-62
2022/04/07 01:34:15;;;;;;;9.50;3.30;;;;;;;6.64;88.04;97502.56;104561;1277;62051;-64
2022/04/07 01:37:04;;;;;;;8.90;3.70;;;;;;;6.64;88.02;97501.77;104550;1277;74465;-63
2022/04/07 01:39:53;;;;;;;9.40;3.60;;;;;;;6.63;87.87;97503.09;104553;1278;69481;-68
2022/04/07 01:42:45;;;;;;;10.10;3.50;;;;;;;6.62;88.16;97496.32;104635;1274;74330;-68
2022/04/07 01:45:34;;;;;;;10.70;3.80;;;;;;;6.61;87.90;97495.16;104544;1277;59799;-65
2022/04/07 01:48:23;;;;;;;9.40;3.50;;;;;;;6.62;87.81;97497.77;104575;1277;59811;-65
2022/04/07 01:51:12;;;;;;;9.30;3.60;;;;;;;6.62;87.91;97501.64;104548;1277;73888;-65
2022/04/07 01:54:01;;;;;;;8.10;3.40;;;;;;;6.61;87.57;97505.62;104558;1278;68675;-64
2022/04/07 01:56:50;;;;;;;9.80;3.60;;;;;;;6.58;87.63;97501.12;104676;1277;72958;-65
2022/04/07 01:59:39;;;;;;;11.80;4.00;;;;;;;6.58;87.44;97495.17;104575;1278;59803;-67
2022/04/07 02:02:28;;;;;;;10.30;3.90;;;;;;;6.57;87.41;97492.91;104610;1277;59748;-63
2022/04/07 02:05:16;;;;;;;9.50;3.90;;;;;;;6.57;87.49;97491.20;104526;1278;73885;-63
2022/04/07 02:08:07;;;;;;;7.70;3.50;;;;;;;6.57;87.31;97491.20;104459;1278;68830;-66
2022/04/07 02:10:55;;;;;;;8.60;3.80;;;;;;;6.57;87.12;97495.09;104591;1277;71843;-65
2022/04/07 02:13:43;;;;;;;11.10;4.40;;;;;;;6.54;87.21;97491.81;104576;1277;59671;-63
2022/04/07 02:16:31;;;;;;;11.10;4.70;;;;;;;6.52;87.17;97492.95;104516;1276;60495;-65
2022/04/07 02:19:19;;;;;;;8.80;3.90;;;;;;;6.50;87.31;97491.25;104623;1277;73695;-63
2022/04/07 02:22:07;;;;;;;8.10;4.20;;;;;;;6.48;87.52;97486.83;104926;1274;68839;-62
2022/04/07 02:24:57;;;;;;;10.30;4.00;;;;;;;6.49;87.46;97489.04;104645;1274;74245;-62
2022/04/07 02:27:45;;;;;;;8.90;3.90;;;;;;;6.47;87.30;97482.46;104886;1274;59714;-64
2022/04/07 02:30:33;;;;;;;10.10;4.20;;;;;;;6.42;87.32;97482.80;104784;1274;61019;-63
2022/04/07 02:33:21;;;;;;;9.80;3.90;;;;;;;6.45;87.14;97486.38;104723;1274;74765;-63
2022/04/07 02:36:09;;;;;;;8.90;3.30;;;;;;;6.46;87.29;97484.52;104761;1275;68750;-63
2022/04/07 02:38:57;;;;;;;9.20;3.20;;;;;;;6.46;87.08;97477.45;104761;1275;72671;-61
2022/04/07 02:41:51;;;;;;;9.60;3.40;;;;;;;6.47;87.07;97481.42;104851;1274;59721;-64
2022/04/07 02:44:39;;;;;;;9.10;3.50;;;;;;;6.48;86.90;97474.67;104841;1274;59582;-62
2022/04/07 02:47:36;;;;;;;9.60;3.60;;;;;;;6.47;86.91;97472.95;104788;1274;73330;-61
2022/04/07 02:50:24;;;;;;;8.80;3.80;;;;;;;6.47;86.67;97473.64;104540;1275;69797;-63
2022/04/07 02:53:14;;;;;;;11.80;4.00;;;;;;;6.48;86.87;97478.56;104713;1274;74263;-62
2022/04/07 02:56:02;;;;;;;8.30;3.10;;;;;;;6.48;86.61;97474.99;104649;1274;59699;-62
2022/04/07 02:58:50;;;;;;;9.50;3.90;;;;;;;6.46;86.85;97474.45;104560;1274;61413;-63
2022/04/07 03:01:38;;;;;;;9.70;3.30;;;;;;;6.44;86.78;97469.06;104894;1274;74983;-63
2022/04/07 03:04:26;;;;;;;9.00;3.70;;;;;;;6.40;87.01;97462.94;104746;1275;67146;-63
2022/04/07 03:07:15;;;;;;;7.80;3.10;;;;;;;6.37;87.05;97460.14;104767;1274;74977;-63
2022/04/07 03:10:04;;;;;;;9.90;4.10;;;;;;;6.33;87.07;97454.86;104779;1274;59818;-65
2022/04/07 03:12:51;;;;;;;8.00;3.30;;;;;;;6.31;87.20;97452.64;104647;1275;61096;-64
2022/04/07 03:15:40;;;;;;;8.50;3.90;;;;;;;6.29;87.46;97451.77;104667;1275;73886;-63
2022/04/07 03:18:28;;;;;;;10.40;3.70;;;;;;;6.25;87.66;97448.31;104682;1274;69425;-62
2022/04/07 03:21:15;;;;;;;9.60;3.90;;;;;;;6.22;87.63;97453.67;105129;1274;73469;-65
2022/04/07 03:24:04;;;;;;;7.90;3.30;;;;;;;6.20;87.88;97449.34;104739;1274;59710;-64
2022/04/07 03:27:12;;;;;;;9.00;3.80;;;;;;;6.18;87.71;97452.33;104892;1274;61939;-65
2022/04/07 03:29:59;;;;;;;8.20;3.50;;;;;;;6.16;87.84;97452.19;104961;1275;73727;-65
2022/04/07 03:32:48;;;;;;;9.10;3.50;;;;;;;6.14;88.20;97445.64;104759;1274;67034;-67
2022/04/07 03:35:37;;;;;;;9.00;3.60;;;;;;;6.13;88.35;97453.39;104819;1274;71812;-66
2022/04/07 03:38:25;;;;;;;8.70;3.80;;;;;;;6.13;88.52;97445.11;104692;1274;59770;-64
2022/04/07 03:41:13;;;;;;;11.90;4.20;;;;;;;6.16;88.48;97444.46;104730;1274;62146;-66
2022/04/07 03:44:07;;;;;;;9.70;3.90;;;;;;;6.19;88.34;97436.95;104793;1275;74597;-66
2022/04/07 03:46:55;;;;;;;9.60;4.30;;;;;;;6.22;88.38;97441.85;104576;1274;66831;-73
2022/04/07 03:49:42;;;;;;;9.00;3.40;;;;;;;6.26;88.29;97437.63;105406;1273;73560;-66
2022/04/07 03:52:30;;;;;;;9.80;3.90;;;;;;;6.28;88.09;97438.08;105026;1274;59722;-66
2022/04/07 03:55:20;;;;;;;9.30;3.80;;;;;;;6.31;87.80;97440.45;104577;1274;61441;-67
2022/04/07 03:58:08;;;;;;;10.30;3.80;;;;;;;6.31;87.78;97436.80;104783;1274;72618;-66
2022/04/07 04:00:58;;;;;;;10.30;3.60;;;;;;;6.27;87.77;97442.61;103932;1274;1003025;-67
2022/04/07 04:03:45;;;;;;;10.70;3.60;;;;;;;6.23;88.05;97435.84;104403;1274;73510;-66
2022/04/07 04:06:34;;;;;;;8.10;3.60;;;;;;;6.18;88.27;97432.61;104668;1274;59824;-67
2022/04/07 04:09:22;;;;;;;8.70;3.60;;;;;;;6.12;88.50;97432.33;105409;1274;59667;-68
2022/04/07 04:12:11;;;;;;;9.00;3.40;;;;;;;6.09;88.49;97427.52;104305;1274;73837;-69
2022/04/07 04:14:59;;;;;;;9.00;3.60;;;;;;;6.06;88.88;97425.77;104864;1274;67450;-69
2022/04/07 04:17:49;;;;;;;8.90;3.70;;;;;;;6.03;88.71;97423.76;104566;1274;74316;-67
2022/04/07 04:20:38;;;;;;;8.90;3.80;;;;;;;5.98;88.96;97421.91;104774;1274;61637;-66
2022/04/07 04:23:26;;;;;;;11.90;4.00;;;;;;;5.99;88.97;97423.29;104525;1274;61109;-67
2022/04/07 04:26:14;;;;;;;9.00;4.10;;;;;;;5.99;89.09;97422.05;104615;1274;72303;-66
2022/04/07 04:29:05;;;;;;;11.10;4.60;;;;;;;5.99;88.99;97417.64;104534;1274;69624;-67
2022/04/07 04:31:55;;;;;;;10.50;4.10;;;;;;;6.00;88.70;97419.67;104493;1275;74177;-67
2022/04/07 04:34:43;;;;;;;11.40;4.60;;;;;;;6.01;88.73;97418.81;104421;1274;60414;-67
2022/04/07 04:37:31;;;;;;;9.70;3.90;;;;;;;6.04;88.75;97419.42;104755;1274;59559;-66
2022/04/07 04:40:21;;;;;;;9.70;4.30;;;;;;;6.08;88.57;97419.95;105033;1274;74791;-67
2022/04/07 04:43:09;;;;;;;10.60;4.20;;;;;;;6.11;88.29;97416.38;104847;1274;67197;-68
2022/04/07 04:45:57;;;;;;;12.90;4.10;;;;;;;6.16;88.01;97418.38;104567;1274;73213;-68
2022/04/07 04:48:45;;;;;;;8.70;3.40;;;;;;;6.19;87.88;97421.40;104557;1274;59780;-68
2022/04/07 04:51:32;;;;;;;8.20;3.40;;;;;;;6.23;87.71;97421.72;104980;1274;61589;-66
2022/04/07 04:54:20;;;;;;;9.70;4.30;;;;;;;6.24;87.58;97420.34;104567;1275;74828;-69
2022/04/07 04:57:09;;;;;;;12.90;4.50;;;;;;;6.28;87.54;97424.52;104780;1274;67573;-70
2022/04/07 04:59:57;;;;;;;10.00;3.70;;;;;;;6.30;87.10;97418.16;104663;1274;74203;-67
2022/04/07 05:02:45;;;;;;;11.20;4.10;;;;;;;6.33;86.87;97417.02;104601;1274;60572;-67
2022/04/07 05:05:33;;;;;;;10.70;4.40;;;;;;;6.35;86.63;97420.36;104502;1274;61324;-67
2022/04/07 05:08:21;;;;;;;9.90;4.10;;;;;;;6.37;86.57;97414.17;104611;1274;71229;-66
2022/04/07 05:11:09;;;;;;;11.40;4.30;;;;;;;6.37;86.51;97416.75;104566;1275;66532;-65
2022/04/07 05:13:57;;;;;;;10.30;4.00;;;;;;;6.39;86.35;97413.65;104557;1275;73463;-68
2022/04/07 05:16:44;;;;;;;11.00;4.10;;;;;;;6.39;86.30;97415.33;104644;1274;59824;-70
2022/04/07 05:19:32;;;;;;;9.40;3.80;;;;;;;6.43;86.21;97415.28;104612;1274;62137;-67
2022/04/07 05:22:22;;;;;;;13.00;4.40;;;;;;;6.46;86.00;97415.44;104818;1274;74815;-68
2022/04/07 05:25:11;;;;;;;10.50;4.00;;;;;;;6.54;85.47;97414.71;104797;1274;67286;-69
2022/04/07 05:27:59;;;;;;;11.00;5.20;;;;;;;6.60;85.37;97417.44;104943;1274;72693;-66
2022/04/07 05:30:47;;;;;;;9.40;3.90;;;;;;;6.70;84.96;97415.90;105076;1274;59786;-70
2022/04/07 05:33:39;;;;;;;11.10;4.50;;;;;;;6.77;84.38;97415.80;104769;1274;60548;-70
2022/04/07 05:36:27;;;;;;;12.40;4.30;;;;;;;6.84;84.02;97414.66;105205;1274;73188;-71
2022/04/07 05:39:15;;;;;;;13.60;4.00;;;;;;;6.87;84.10;97406.53;105004;1274;66727;-69
2022/04/07 05:42:05;;;;;;;11.60;4.20;;;;;;;6.89;83.62;97398.91;104876;1274;74429;-68
2022/04/07 05:44:53;;;;;;;13.10;4.40;;;;;;;6.92;83.45;97392.41;104839;1274;59761;-69
2022/04/07 05:47:41;;;;;;;12.80;4.70;;;;;;;6.99;83.19;97388.36;105768;1274;59562;-68
2022/04/07 05:50:29;;;;;;;13.80;4.30;;;;;;;7.14;82.85;97381.68;105156;1274;74482;-68
2022/04/07 05:53:17;;;;;;;10.90;3.90;;;;;;;7.27;82.19;97386.00;104920;1274;67957;-69
2022/04/07 05:56:05;;;;;;;10.20;4.10;;;;;;;7.37;81.55;97378.77;104868;1274;74381;-64
2022/04/07 05:58:56;;;;;;;11.40;4.60;;;;;;;7.25;81.17;97351.55;104769;1274;60081;-68
2022/04/07 06:01:53;;;;;;;11.90;4.60;;;;;;;7.49;80.98;97379.52;104700;1274;60555;-67
2022/04/07 06:04:41;;;;;;;12.40;4.20;;;;;;;7.57;80.62;97381.39;104732;1274;74770;-68
2022/04/07 06:07:28;;;;;;;12.20;4.60;;;;;;;7.66;79.65;97377.20;104684;1274;69912;-69
2022/04/07 06:10:16;;;;;;;12.00;4.80;;;;;;;7.77;79.71;97380.24;104697;1274;72248;-68
2022/04/07 06:13:04;;;;;;;17.20;5.40;;;;;;;7.89;78.98;97374.94;104924;1274;59882;-71
2022/04/07 06:15:52;;;;;;;19.20;6.40;;;;;;;8.03;78.42;97371.04;104779;1274;61350;-68
2022/04/07 06:18:40;;;;;;;17.50;5.50;;;;;;;8.18;77.76;97368.31;104625;1274;74746;-71
2022/04/07 06:21:33;;;;;;;20.50;5.70;;;;;;;8.36;76.79;97364.11;105102;1274;68699;-71
2022/04/07 06:24:20;;;;;;;18.50;5.50;;;;;;;8.74;75.95;97356.15;105226;1274;74306;-68
2022/04/07 06:27:08;;;;;;;21.00;5.80;;;;;;;9.49;72.74;97353.13;104673;1274;59705;-70
2022/04/07 06:29:56;;;;;;;21.40;6.40;;;;;;;10.72;67.83;97346.67;104707;1274;62439;-69
2022/04/07 06:32:46;;;;;;;17.70;5.20;;;;;;;12.00;63.78;97345.39;104923;1274;74139;-71
2022/04/07 06:35:37;;;;;;;12.40;4.70;;;;;;;13.18;58.32;97335.05;104707;1274;68977;-68
2022/04/07 06:38:28;;;;;;;16.70;5.40;;;;;;;13.80;54.25;97333.93;104709;1274;72461;-68
2022/04/07 06:41:16;;;;;;;14.00;4.90;;;;;;;14.16;53.00;97332.70;104920;1274;59796;-69
2022/04/07 06:44:04;;;;;;;14.50;4.60;;;;;;;14.44;52.01;97326.04;104647;1274;60244;-68
2022/04/07 06:46:52;;;;;;;19.40;5.80;;;;;;;14.47;51.66;97319.15;104784;1274;73927;-71
2022/04/07 06:49:40;;;;;;;24.40;5.80;;;;;;;14.72;51.23;97317.88;104731;1274;68490;-72
2022/04/07 06:52:28;;;;;;;22.80;6.40;;;;;;;14.95;50.24;97313.74;104766;1274;73599;-69
2022/04/07 06:55:16;;;;;;;14.00;5.20;;;;;;;15.02;50.61;97306.62;104914;1274;59723;-69
2022/04/07 06:58:06;;;;;;;14.80;4.60;;;;;;;15.37;49.14;97303.87;104954;1274;61048;-69
2022/04/07 07:00:54;;;;;;;22.20;5.20;;;;;;;15.97;49.32;97297.73;104672;1275;73584;-71
2022/04/07 07:03:42;;;;;;;19.80;5.90;;;;;;;16.37;46.86;97292.12;105227;1274;66854;-70
2022/04/07 07:06:30;;;;;;;18.00;4.90;;;;;;;16.45;46.05;97285.14;104630;1274;73348;-69
2022/04/07 07:09:18;;;;;;;17.40;5.00;;;;;;;16.19;46.02;97283.44;104908;1274;59741;-70
2022/04/07 07:12:07;;;;;;;17.20;4.50;;;;;;;16.26;45.92;97274.41;104644;1274;62098;-71
2022/04/07 07:14:55;;;;;;;17.10;4.40;;;;;;;16.53;45.86;97272.98;104687;1274;73937;-68
2022/04/07 07:17:44;;;;;;;13.60;4.80;;;;;;;17.15;45.10;97258.88;104657;1274;69098;-67
2022/04/07 07:20:32;;;;;;;16.10;4.80;;;;;;;17.86;42.72;97255.27;104684;1274;74444;-68
2022/04/07 07:23:25;;;;;;;18.30;4.40;;;;;;;18.22;41.90;97251.22;104873;1274;59750;-68
2022/04/07 07:26:13;;;;;;;21.60;4.70;;;;;;;18.24;41.30;97245.17;104716;1274;59872;-65
2022/04/07 07:29:02;;;;;;;22.30;5.60;;;;;;;18.01;41.33;97239.46;104559;1274;74206;-66
2022/04/07 07:31:49;;;;;;;17.20;4.60;;;;;;;17.76;41.83;97233.86;104653;1274;68844;-66
2022/04/07 07:34:37;;;;;;;19.30;5.10;;;;;;;17.26;43.01;97233.96;104740;1274;74412;-69
2022/04/07 07:37:25;;;;;;;16.50;4.80;;;;;;;17.16;43.29;97225.89;104595;1274;59684;-68
2022/04/07 07:40:13;;;;;;;16.20;4.10;;;;;;;17.47;42.83;97226.13;104610;1274;62341;-67
2022/04/07 07:43:02;;;;;;;14.00;4.10;;;;;;;17.83;41.32;97216.23;104638;1274;74198;-67
2022/04/07 07:45:50;;;;;;;12.60;4.10;;;;;;;17.83;41.20;97216.57;104641;1274;68882;-72
2022/04/07 07:48:41;;;;;;;9.90;3.00;;;;;;;17.49;41.44;97216.71;104575;1274;74411;-72
2022/04/07 07:51:30;;;;;;;13.30;3.80;;;;;;;17.65;41.75;97219.13;104920;1274;59652;-69
2022/04/07 07:54:18;;;;;;;13.30;4.40;;;;;;;17.56;41.99;97218.49;104693;1275;59682;-66
2022/04/07 07:57:06;;;;;;;12.10;4.10;;;;;;;17.77;41.48;97226.11;104732;1274;74681;-71
2022/04/07 07:59:54;;;;;;;21.70;6.90;;;;;;;17.87;41.03;97218.86;105087;1274;67810;-70
2022/04/07 08:02:43;;;;;;;10.90;4.30;;;;;;;18.14;40.25;97212.08;104917;1274;73486;-70
2022/04/07 08:05:31;;;;;;;12.90;4.10;;;;;;;18.33;40.21;97201.38;104836;1275;59687;-68
2022/04/07 08:08:19;;;;;;;12.70;4.30;;;;;;;18.41;39.42;97208.09;104883;1274;62048;-69
2022/04/07 08:11:07;;;;;;;11.70;3.90;;;;;;;18.69;39.42;97199.91;104785;1274;73273;-70
2022/04/07 08:13:55;;;;;;;9.60;4.00;;;;;;;18.64;39.17;97200.92;104950;1274;69017;-70
2022/04/07 08:16:43;;;;;;;9.50;3.60;;;;;;;19.00;38.38;97201.50;104630;1274;72872;-70
2022/04/07 08:19:31;;;;;;;7.90;3.00;;;;;;;18.60;38.98;97207.05;105022;1274;59750;-68
2022/04/07 08:22:19;;;;;;;8.40;3.20;;;;;;;18.30;39.63;97202.05;105079;1274;60293;-70
2022/04/07 08:25:08;;;;;;;9.30;3.30;;;;;;;18.33;39.19;97188.72;104647;1274;72562;-69
2022/04/07 08:27:56;;;;;;;16.10;4.50;;;;;;;17.77;40.44;97180.55;104520;1275;68677;-68
2022/04/07 08:30:44;;;;;;;11.00;3.90;;;;;;;17.76;40.86;97174.58;104739;1274;74420;-69
2022/04/07 08:33:33;;;;;;;10.50;3.90;;;;;;;18.10;40.23;97176.85;104444;1274;59708;-68
2022/04/07 08:36:21;;;;;;;12.50;3.40;;;;;;;18.58;39.31;97168.24;104522;1274;63409;-69
2022/04/07 08:39:10;;;;;;;14.00;4.20;;;;;;;18.99;38.38;97166.71;104771;1274;74536;-69
2022/04/07 08:41:59;;;;;;;11.30;3.70;;;;;;;18.81;38.29;97169.94;104695;1274;67392;-68
2022/04/07 08:44:48;;;;;;;10.10;3.30;;;;;;;18.82;38.41;97170.17;104724;1274;73463;-69
2022/04/07 08:47:37;;;;;;;11.90;3.50;;;;;;;18.59;38.14;97176.71;104497;1274;59766;-71
2022/04/07 08:50:27;;;;;;;10.30;3.20;;;;;;;18.66;38.98;97174.63;104667;1274;61326;-69
2022/04/07 08:53:15;;;;;;;13.60;4.00;;;;;;;18.44;39.41;97169.96;104857;1275;74605;-71
2022/04/07 08:56:06;;;;;;;8.10;3.30;;;;;;;18.54;39.47;97171.66;104725;1274;68410;-70
2022/04/07 08:58:54;;;;;;;11.70;3.60;;;;;;;18.11;39.48;97171.77;104514;1274;71830;-68
2022/04/07 09:01:43;;;;;;;14.10;3.90;;;;;;;18.13;40.56;97167.75;104604;1274;59703;-68
2022/04/07 09:04:37;;;;;;;11.20;3.70;;;;;;;18.38;40.11;97164.38;104498;1274;60627;-69
2022/04/07 09:07:33;;;;;;;9.80;3.60;;;;;;;18.02;40.32;97172.54;104267;1274;72503;-69
2022/04/07 09:10:28;;;;;;;12.80;3.80;;;;;;;17.37;41.06;97166.51;104670;1274;68694;-70
2022/04/07 09:13:17;;;;;;;15.10;4.90;;;;;;;17.02;42.41;97167.82;104494;1275;72455;-70
2022/04/07 09:16:11;;;;;;;25.90;9.10;;;;;;;16.24;43.16;97169.66;105024;1275;59770;-67
2022/04/07 09:19:00;;;;;;;18.50;6.10;;;;;;;15.50;44.59;97165.70;104979;1274;61314;-67
2022/04/07 09:22:04;;;;;;;18.60;5.90;;;;;;;15.18;46.04;97170.16;105274;1274;73373;-68
2022/04/07 09:24:52;;;;;;;20.70;6.90;;;;;;;15.10;46.38;97162.73;105054;1274;69703;-66
2022/04/07 09:27:41;;;;;;;20.40;5.50;;;;;;;15.20;46.42;97160.98;104841;1274;74395;-71
2022/04/07 09:30:41;;;;;;;14.00;4.20;;;;;;;15.77;45.08;97147.20;104891;1274;59712;-68
2022/04/07 09:33:29;;;;;;;15.40;6.00;;;;;;;15.92;44.86;97143.50;104892;1274;60488;-69
2022/04/07 09:36:21;;;;;;;14.40;3.80;;;;;;;16.39;44.06;97135.08;104877;1274;73806;-67
2022/04/07 09:39:09;;;;;;;17.00;5.40;;;;;;;16.08;44.08;97135.78;104942;1274;67794;-69
2022/04/07 09:42:22;;;;;;;16.70;4.00;;;;;;;15.64;44.74;97144.65;104859;1274;72786;-69
2022/04/07 09:45:12;;;;;;;12.10;3.50;;;;;;;15.20;46.03;97133.84;104740;1275;59734;-67
2022/04/07 09:48:00;;;;;;;18.60;4.90;;;;;;;14.77;46.96;97127.73;104833;1274;59572;-66
2022/04/07 09:51:06;;;;;;;15.70;5.10;;;;;;;14.43;48.62;97119.82;104868;1274;73354;-67
2022/04/07 09:53:56;;;;;;;8.30;3.00;;;;;;;14.15;49.20;97119.62;104854;1274;68144;-67
2022/04/07 09:56:47;;;;;;;11.70;3.30;;;;;;;13.96;49.32;97115.77;104974;1274;74445;-67
2022/04/07 09:59:40;;;;;;;8.70;2.90;;;;;;;14.14;49.13;97106.33;104815;1274;59834;-68
2022/04/07 10:02:31;;;;;;;10.60;3.80;;;;;;;14.24;48.29;97097.06;104884;1274;60550;-68
2022/04/07 10:05:24;;;;;;;10.50;4.60;;;;;;;14.57;47.79;97097.31;104821;1275;74486;-68
2022/04/07 10:08:15;;;;;;;9.80;3.30;;;;;;;15.03;47.21;97088.91;105080;1274;69670;-67
2022/04/07 10:11:04;;;;;;;8.80;4.10;;;;;;;15.53;46.03;97080.60;105032;1274;73310;-67
2022/04/07 10:13:55;;;;;;;8.90;2.90;;;;;;;15.12;46.27;97086.14;104807;1275;59684;-69
2022/04/07 10:17:08;;;;;;;10.00;3.70;;;;;;;15.31;46.55;97081.08;104830;1274;61317;-67
2022/04/07 10:20:11;;;;;;;12.90;3.50;;;;;;;15.92;45.32;97066.38;104863;1274;73356;-68
2022/04/07 10:23:17;;;;;;;9.80;4.00;;;;;;;16.20;44.16;97055.42;104812;1274;69620;-67
2022/04/07 10:26:10;;;;;;;10.30;4.00;;;;;;;16.42;43.19;97050.55;104853;1274;70315;-68
2022/04/07 10:28:57;;;;;;;9.00;3.20;;;;;;;16.04;44.15;97046.75;104775;1275;59787;-68
2022/04/07 10:32:10;;;;;;;9.90;3.50;;;;;;;15.65;45.14;97040.02;105082;1274;60557;-67
2022/04/07 10:34:59;;;;;;;9.70;3.20;;;;;;;16.09;44.77;97027.08;104684;1274;73751;-69
2022/04/07 10:37:47;;;;;;;7.70;3.20;;;;;;;15.88;44.83;97031.77;104625;1274;69615;-70
2022/04/07 10:40:49;;;;;;;9.60;3.30;;;;;;;15.14;46.03;97022.80;104666;1274;74522;-69
2022/04/07 10:43:39;;;;;;;7.90;3.00;;;;;;;14.68;47.35;97024.77;104433;1275;59754;-68
2022/04/07 10:46:27;;;;;;;8.50;3.30;;;;;;;14.33;48.54;97020.34;104651;1274;61657;-68
2022/04/07 10:49:25;;;;;;;8.90;3.50;;;;;;;14.17;48.86;97021.60;104672;1274;74784;-68
2022/04/07 10:52:26;;;;;;;8.90;3.10;;;;;;;13.92;49.16;97007.46;104622;1274;68652;-69
2022/04/07 10:55:14;;;;;;;9.30;3.20;;;;;;;13.62;49.69;97007.73;104580;1275;73384;-69
2022/04/07 10:58:15;;;;;;;7.90;3.00;;;;;;;13.29;50.98;97004.82;104624;1274;59659;-70
2022/04/07 11:01:03;;;;;;;7.70;2.80;;;;;;;13.08;51.83;96993.73;104896;1274;61162;-67
2022/04/07 11:04:20;;;;;;;10.40;3.10;;;;;;;12.90;52.61;97002.75;104666;1274;73973;-68
2022/04/07 11:07:09;;;;;;;10.80;4.70;;;;;;;12.82;52.71;96990.83;104985;1274;67336;-68
2022/04/07 11:10:00;;;;;;;7.70;3.70;;;;;;;12.84;53.27;96998.98;104605;1274;74282;-66
2022/04/07 11:13:02;;;;;;;12.00;3.60;;;;;;;13.00;52.87;96983.60;104614;1274;59776;-69
2022/04/07 11:15:59;;;;;;;9.20;3.00;;;;;;;14.24;50.07;96979.08;104602;1274;59662;-68
2022/04/07 11:19:21;;;;;;;7.80;3.20;;;;;;;15.59;46.18;96970.81;104668;1274;74131;-68
2022/04/07 11:22:10;;;;;;;6.90;3.00;;;;;;;15.81;45.05;96957.15;104822;1274;67284;-68
2022/04/07 11:25:04;;;;;;;11.50;3.70;;;;;;;15.24;46.72;96957.23;104610;1274;73444;-68
2022/04/07 11:28:13;;;;;;;15.70;3.90;;;;;;;15.52;46.60;96957.33;104815;1274;59647;-70
2022/04/07 11:31:04;;;;;;;11.90;3.50;;;;;;;15.92;45.57;96946.94;104447;1275;60541;-68
2022/04/07 11:33:51;;;;;;;9.50;2.90;;;;;;;15.88;45.11;96961.13;104645;1275;74736;-69
2022/04/07 11:36:41;;;;;;;8.60;3.10;;;;;;;15.21;46.14;96949.60;104597;1274;68426;-69
2022/04/07 11:39:32;;;;;;;9.30;3.00;;;;;;;14.58;47.76;96951.11;104604;1274;73373;-70
2022/04/07 11:42:22;;;;;;;9.70;3.10;;;;;;;14.19;48.68;96937.20;104586;1275;59674;-68
2022/04/07 11:45:10;;;;;;;13.70;2.80;;;;;;;13.92;49.60;96931.42;104622;1274;61662;-71
2022/04/07 11:47:58;;;;;;;12.30;3.30;;;;;;;13.64;50.10;96927.95;104810;1274;73256;-66
2022/04/07 11:50:46;;;;;;;14.80;3.40;;;;;;;13.49;50.90;96921.99;104599;1274;68677;-68
2022/04/07 11:53:34;;;;;;;11.80;3.10;;;;;;;13.39;51.19;96925.09;104672;1274;73504;-69
2022/04/07 11:56:34;;;;;;;20.90;3.80;;;;;;;13.43;51.31;96926.92;104465;1275;59848;-71
2022/04/07 11:59:23;;;;;;;8.40;2.70;;;;;;;13.50;50.30;96919.41;104829;1274;60909;-70
2022/04/07 12:02:21;;;;;;;10.60;2.60;;;;;;;13.62;50.14;96913.29;104669;1274;74510;-69
2022/04/07 12:05:11;;;;;;;11.10;2.50;;;;;;;13.77;49.76;96906.43;104567;1274;69771;-68
2022/04/07 12:08:14;;;;;;;12.30;2.70;;;;;;;13.88;49.83;96900.77;104685;1274;72295;-70
2022/04/07 12:11:03;;;;;;;11.60;3.30;;;;;;;14.05;49.55;96894.63;104776;1274;59671;-70
2022/04/07 12:13:56;;;;;;;6.90;2.30;;;;;;;14.15;49.12;96882.64;104855;1274;62071;-69
2022/04/07 12:16:49;;;;;;;6.80;2.10;;;;;;;14.32;48.55;96867.11;104679;1274;74532;-70
2022/04/07 12:19:44;;;;;;;7.50;2.60;;;;;;;14.47;48.24;96860.81;104502;1274;68815;-71
2022/04/07 12:22:32;;;;;;;7.50;2.20;;;;;;;14.63;47.71;96861.20;104769;1275;73523;-72
2022/04/07 12:25:25;;;;;;;8.20;2.60;;;;;;;14.54;47.85;96854.40;104687;1275;59676;-69
2022/04/07 12:28:18;;;;;;;9.00;2.70;;;;;;;14.47;47.71;96850.81;104876;1273;59640;-68
2022/04/07 12:31:12;;;;;;;7.00;2.20;;;;;;;14.31;47.32;96850.11;104834;1274;74792;-72
2022/04/07 12:34:12;;;;;;;13.10;2.50;;;;;;;14.13;48.18;96843.05;105083;1274;69149;-69
2022/04/07 12:37:03;;;;;;;8.70;2.60;;;;;;;14.08;48.94;96841.16;104666;1275;73396;-70
2022/04/07 12:39:51;;;;;;;7.10;3.00;;;;;;;14.04;49.65;96838.66;104635;1275;59664;-70
2022/04/07 12:42:51;;;;;;;7.40;2.40;;;;;;;13.93;49.31;96832.67;104637;1274;59976;-71
2022/04/07 12:45:56;;;;;;;7.80;2.70;;;;;;;13.78;49.61;96846.69;104888;1274;72533;-68
2022/04/07 12:49:05;;;;;;;6.90;2.80;;;;;;;13.73;49.83;96838.84;104608;1275;69394;-68
2022/04/07 12:52:04;;;;;;;7.70;2.80;;;;;;;13.83;50.25;96819.03;104643;1274;74093;-69
2022/04/07 12:55:10;;;;;;;7.20;2.70;;;;;;;13.91;50.77;96814.10;104456;1275;59648;-70
2022/04/07 12:57:58;;;;;;;6.80;2.50;;;;;;;13.88;50.19;96797.67;104819;1274;60275;-70
2022/04/07 13:00:59;;;;;;;8.90;2.80;;;;;;;13.80;50.56;96807.45;104745;1274;74621;-68
2022/04/07 13:03:56;;;;;;;10.00;3.00;;;;;;;13.78;50.92;96795.75;104490;1274;66375;-69
2022/04/07 13:06:44;;;;;;;7.90;2.90;;;;;;;13.87;50.74;96791.04;104620;1275;72124;-67
2022/04/07 13:09:34;;;;;;;8.40;2.90;;;;;;;13.92;50.76;96778.80;104875;1274;59697;-71
2022/04/07 13:12:22;;;;;;;7.80;2.30;;;;;;;14.10;50.61;96778.95;104669;1274;59676;-69
2022/04/07 13:15:11;;;;;;;9.60;2.70;;;;;;;14.17;50.33;96777.96;104530;1274;73016;-69
2022/04/07 13:17:59;;;;;;;7.80;2.60;;;;;;;14.12;50.96;96761.64;104630;1274;67521;-70